sensor_id;sensor_type;location;lat;lon;timestamp;pressure;altitude;pressure_sealevel;temperature;humidity
29461;BME280;16428;47.836;35.106;2023-12-14T00:01:14;101467.44;;;-1.25;100.00
29461;BME280;16428;47.836;35.106;2023-12-14T00:03:42;101474.50;;;-1.26;100.00
29461;BME280;16428;47.836;35.106;2023-12-14T00:06:11;101464.53;;;-1.21;100.00
29461;BME280;16428;47.836;35.106;2023-12-14T00:08:39;101459.38;;;-1.22;100.00
29461;BME280;16428;47.836;35.106;2023-12-14T00:11:08;101464.31;;;-1.16;100.00
29461;BME280;16428;47.836;35.106;2023-12-14T00:13:36;101454.59;;;-1.31;100.00
29461;BME280;16428;47.836;35.106;2023-12-14T00:16:04;101445.97;;;-1.51;100.00
29461;BME280;16428;47.836;35.106;2023-12-14T00:18:31;101446.16;;;-1.54;100.00
29461;BME280;16428;47.836;35.106;2023-12-14T00:20:58;101457.16;;;-1.30;100.00
29461;BME280;16428;47.836;35.106;2023-12-14T00:23:25;101442.94;;;-1.43;100.00
29461;BME280;16428;47.836;35.106;2023-12-14T00:25:52;101447.00;;;-1.53;100.00
29461;BME280;16428;47.836;35.106;2023-12-14T00:28:19;101441.06;;;-1.41;100.00
29461;BME280;16428;47.836;35.106;2023-12-14T00:30:46;101445.47;;;-1.42;100.00
29461;BME280;16428;47.836;35.106;2023-12-14T00:33:14;101447.00;;;-1.37;100.00
29461;BME280;16428;47.836;35.106;2023-12-14T00:35:41;101447.34;;;-1.44;100.00
29461;BME280;16428;47.836;35.106;2023-12-14T00:38:08;101452.28;;;-1.37;100.00
29461;BME280;16428;47.836;35.106;2023-12-14T00:40:35;101449.06;;;-1.27;100.00
29461;BME280;16428;47.836;35.106;2023-12-14T00:43:02;101466.22;;;-1.35;100.00
29461;BME280;16428;47.836;35.106;2023-12-14T00:45:29;101453.34;;;-1.24;100.00
29461;BME280;16428;47.836;35.106;2023-12-14T00:47:56;101460.13;;;-1.20;100.00
29461;BME280;16428;47.836;35.106;2023-12-14T00:50:23;101475.44;;;-1.27;100.00
29461;BME280;16428;47.836;35.106;2023-12-14T00:52:50;101468.09;;;-1.37;100.00
29461;BME280;16428;47.836;35.106;2023-12-14T00:55:18;101460.97;;;-1.20;100.00
29461;BME280;16428;47.836;35.106;2023-12-14T00:57:45;101450.25;;;-1.32;100.00
29461;BME280;16428;47.836;35.106;2023-12-14T01:00:12;101439.78;;;-1.34;100.00
29461;BME280;16428;47.836;35.106;2023-12-14T01:02:39;101433.16;;;-1.41;100.00
29461;BME280;16428;47.836;35.106;2023-12-14T01:05:07;101432.88;;;-1.52;100.00
29461;BME280;16428;47.836;35.106;2023-12-14T01:07:35;101429.25;;;-1.34;100.00
29461;BME280;16428;47.836;35.106;2023-12-14T01:10:03;101433.94;;;-1.39;100.00
29461;BME280;16428;47.836;35.106;2023-12-14T01:12:30;101423.41;;;-1.23;100.00
29461;BME280;16428;47.836;35.106;2023-12-14T01:14:58;101402.19;;;-1.37;100.00
29461;BME280;16428;47.836;35.106;2023-12-14T01:17:25;101405.66;;;-1.53;100.00
29461;BME280;16428;47.836;35.106;2023-12-14T01:19:52;101412.31;;;-1.46;100.00
29461;BME280;16428;47.836;35.106;2023-12-14T01:22:19;101423.69;;;-1.61;100.00
29461;BME280;16428;47.836;35.106;2023-12-14T01:24:46;101417.53;;;-1.28;100.00
29461;BME280;16428;47.836;35.106;2023-12-14T01:27:13;101427.97;;;-1.43;100.00
29461;BME280;16428;47.836;35.106;2023-12-14T01:29:41;101418.69;;;-1.50;100.00
29461;BME280;16428;47.836;35.106;2023-12-14T01:32:08;101419.56;;;-1.33;100.00
29461;BME280;16428;47.836;35.106;2023-12-14T01:34:35;101409.06;;;-1.51;100.00
29461;BME280;16428;47.836;35.106;2023-12-14T01:37:02;101414.63;;;-1.39;100.00
29461;BME280;16428;47.836;35.106;2023-12-14T01:39:29;101409.00;;;-1.33;100.00
29461;BME280;16428;47.836;35.106;2023-12-14T01:41:56;101406.38;;;-1.33;100.00
29461;BME280;16428;47.836;35.106;2023-12-14T01:44:23;101403.81;;;-1.35;100.00
29461;BME280;16428;47.836;35.106;2023-12-14T01:46:50;101414.03;;;-1.45;100.00
29461;BME280;16428;47.836;35.106;2023-12-14T01:49:18;101418.00;;;-1.37;100.00
29461;BME280;16428;47.836;35.106;2023-12-14T01:51:45;101422.59;;;-1.57;100.00
29461;BME280;16428;47.836;35.106;2023-12-14T01:54:12;101415.28;;;-1.52;100.00
29461;BME280;16428;47.836;35.106;2023-12-14T01:56:39;101417.91;;;-1.52;100.00
29461;BME280;16428;47.836;35.106;2023-12-14T01:59:07;101422.19;;;-1.33;100.00
29461;BME280;16428;47.836;35.106;2023-12-14T02:01:47;101421.66;;;-1.56;100.00
29461;BME280;16428;47.836;35.106;2023-12-14T02:04:19;101424.25;;;-1.38;100.00
29461;BME280;16428;47.836;35.106;2023-12-14T02:06:46;101438.31;;;-1.55;100.00
29461;BME280;16428;47.836;35.106;2023-12-14T02:09:13;101448.53;;;-1.33;100.00
29461;BME280;16428;47.836;35.106;2023-12-14T02:11:40;101445.81;;;-1.48;100.00
29461;BME280;16428;47.836;35.106;2023-12-14T02:14:11;101435.16;;;-1.62;100.00
29461;BME280;16428;47.836;35.106;2023-12-14T02:16:39;101419.13;;;-1.42;100.00
29461;BME280;16428;47.836;35.106;2023-12-14T02:19:06;101417.53;;;-1.28;100.00
29461;BME280;16428;47.836;35.106;2023-12-14T02:21:33;101414.34;;;-1.51;100.00
29461;BME280;16428;47.836;35.106;2023-12-14T02:24:00;101408.31;;;-1.53;100.00
29461;BME280;16428;47.836;35.106;2023-12-14T02:26:28;101404.72;;;-1.52;100.00
29461;BME280;16428;47.836;35.106;2023-12-14T02:28:55;101411.63;;;-1.49;100.00
29461;BME280;16428;47.836;35.106;2023-12-14T02:31:23;101410.31;;;-1.40;100.00
29461;BME280;16428;47.836;35.106;2023-12-14T02:33:50;101402.38;;;-1.40;100.00
29461;BME280;16428;47.836;35.106;2023-12-14T02:36:17;101393.63;;;-1.25;100.00
29461;BME280;16428;47.836;35.106;2023-12-14T02:38:44;101398.75;;;-1.38;100.00
29461;BME280;16428;47.836;35.106;2023-12-14T02:41:11;101386.91;;;-1.47;100.00
29461;BME280;16428;47.836;35.106;2023-12-14T02:43:39;101374.91;;;-1.36;100.00
29461;BME280;16428;47.836;35.106;2023-12-14T02:46:08;101362.88;;;-1.40;100.00
29461;BME280;16428;47.836;35.106;2023-12-14T02:48:36;101350.47;;;-1.38;100.00
29461;BME280;16428;47.836;35.106;2023-12-14T02:51:03;101337.53;;;-1.43;100.00
29461;BME280;16428;47.836;35.106;2023-12-14T02:53:31;101324.75;;;-1.19;100.00
29461;BME280;16428;47.836;35.106;2023-12-14T02:56:01;101323.25;;;-1.23;100.00
29461;BME280;16428;47.836;35.106;2023-12-14T02:58:29;101303.53;;;-1.48;100.00
29461;BME280;16428;47.836;35.106;2023-12-14T03:00:56;101311.00;;;-1.56;100.00
29461;BME280;16428;47.836;35.106;2023-12-14T03:03:23;101331.91;;;-1.53;100.00
29461;BME280;16428;47.836;35.106;2023-12-14T03:05:50;101334.13;;;-1.61;100.00
29461;BME280;16428;47.836;35.106;2023-12-14T03:08:18;101343.63;;;-1.58;100.00
29461;BME280;16428;47.836;35.106;2023-12-14T03:10:45;101352.13;;;-1.37;100.00
29461;BME280;16428;47.836;35.106;2023-12-14T03:13:12;101334.66;;;-1.38;100.00
29461;BME280;16428;47.836;35.106;2023-12-14T03:15:42;101329.69;;;-1.45;100.00
29461;BME280;16428;47.836;35.106;2023-12-14T03:18:12;101339.31;;;-1.44;100.00
29461;BME280;16428;47.836;35.106;2023-12-14T03:20:39;101319.00;;;-1.57;100.00
29461;BME280;16428;47.836;35.106;2023-12-14T03:23:06;101328.53;;;-1.55;100.00
29461;BME280;16428;47.836;35.106;2023-12-14T03:25:33;101329.94;;;-1.65;100.00
29461;BME280;16428;47.836;35.106;2023-12-14T03:28:00;101337.28;;;-1.54;100.00
29461;BME280;16428;47.836;35.106;2023-12-14T03:30:27;101330.38;;;-1.57;100.00
29461;BME280;16428;47.836;35.106;2023-12-14T03:32:54;101335.50;;;-1.54;100.00
29461;BME280;16428;47.836;35.106;2023-12-14T03:35:21;101328.84;;;-1.61;100.00
29461;BME280;16428;47.836;35.106;2023-12-14T03:37:49;101326.81;;;-1.56;100.00
29461;BME280;16428;47.836;35.106;2023-12-14T03:40:16;101335.13;;;-1.48;100.00
29461;BME280;16428;47.836;35.106;2023-12-14T03:42:43;101325.19;;;-1.43;100.00
29461;BME280;16428;47.836;35.106;2023-12-14T03:45:10;101335.13;;;-1.48;100.00
29461;BME280;16428;47.836;35.106;2023-12-14T03:47:37;101338.53;;;-1.46;100.00
29461;BME280;16428;47.836;35.106;2023-12-14T03:50:05;101340.41;;;-1.48;100.00
29461;BME280;16428;47.836;35.106;2023-12-14T03:52:32;101337.34;;;-1.24;100.00
29461;BME280;16428;47.836;35.106;2023-12-14T03:55:00;101332.75;;;-1.36;100.00
29461;BME280;16428;47.836;35.106;2023-12-14T03:57:27;101331.91;;;-1.53;100.00
29461;BME280;16428;47.836;35.106;2023-12-14T03:59:54;101325.13;;;-1.41;100.00
29461;BME280;16428;47.836;35.106;2023-12-14T04:02:21;101322.63;;;-1.28;100.00
29461;BME280;16428;47.836;35.106;2023-12-14T04:04:48;101328.25;;;-1.50;100.00
29461;BME280;16428;47.836;35.106;2023-12-14T04:07:15;101336.00;;;-1.47;100.00
29461;BME280;16428;47.836;35.106;2023-12-14T04:09:44;101330.56;;;-1.60;100.00
29461;BME280;16428;47.836;35.106;2023-12-14T04:12:12;101323.13;;;-1.37;100.00
29461;BME280;16428;47.836;35.106;2023-12-14T04:14:39;101316.00;;;-1.35;100.00
29461;BME280;16428;47.836;35.106;2023-12-14T04:17:06;101319.94;;;-1.43;100.00
29461;BME280;16428;47.836;35.106;2023-12-14T04:19:33;101316.94;;;-1.36;100.00
29461;BME280;16428;47.836;35.106;2023-12-14T04:22:00;101320.69;;;-1.25;100.00
29461;BME280;16428;47.836;35.106;2023-12-14T04:24:27;101330.63;;;-1.30;100.00
29461;BME280;16428;47.836;35.106;2023-12-14T04:26:54;101321.19;;;-1.34;100.00
29461;BME280;16428;47.836;35.106;2023-12-14T04:29:21;101322.88;;;-1.33;100.00
29461;BME280;16428;47.836;35.106;2023-12-14T04:31:48;101324.75;;;-1.35;100.00
29461;BME280;16428;47.836;35.106;2023-12-14T04:34:15;101317.69;;;-1.34;100.00
29461;BME280;16428;47.836;35.106;2023-12-14T04:36:48;101324.19;;;-1.24;100.00
29461;BME280;16428;47.836;35.106;2023-12-14T04:39:15;101316.09;;;-1.37;100.00
29461;BME280;16428;47.836;35.106;2023-12-14T04:41:44;101304.88;;;-1.25;100.00
29461;BME280;16428;47.836;35.106;2023-12-14T04:44:11;101291.25;;;-1.17;100.00
29461;BME280;16428;47.836;35.106;2023-12-14T04:46:38;101289.72;;;-1.21;100.00
29461;BME280;16428;47.836;35.106;2023-12-14T04:49:05;101285.34;;;-1.07;100.00
29461;BME280;16428;47.836;35.106;2023-12-14T04:51:33;101286.31;;;-1.08;100.00
29461;BME280;16428;47.836;35.106;2023-12-14T04:54:00;101290.06;;;-1.12;100.00
29461;BME280;16428;47.836;35.106;2023-12-14T04:56:28;101283.72;;;-1.23;100.00
29461;BME280;16428;47.836;35.106;2023-12-14T04:58:55;101281.47;;;-1.15;100.00
29461;BME280;16428;47.836;35.106;2023-12-14T05:01:23;101282.22;;;-1.13;100.00
29461;BME280;16428;47.836;35.106;2023-12-14T05:03:50;101276.06;;;-0.98;100.00
29461;BME280;16428;47.836;35.106;2023-12-14T05:06:17;101267.03;;;-0.94;100.00
29461;BME280;16428;47.836;35.106;2023-12-14T05:08:44;101268.69;;;-1.07;100.00
29461;BME280;16428;47.836;35.106;2023-12-14T05:11:12;101253.63;;;-1.05;100.00
29461;BME280;16428;47.836;35.106;2023-12-14T05:13:40;101256.16;;;-1.03;100.00
29461;BME280;16428;47.836;35.106;2023-12-14T05:16:14;101251.34;;;-0.81;100.00
29461;BME280;16428;47.836;35.106;2023-12-14T05:18:41;101238.25;;;-0.83;100.00
29461;BME280;16428;47.836;35.106;2023-12-14T05:21:08;101238.69;;;-0.76;100.00
29461;BME280;16428;47.836;35.106;2023-12-14T05:23:36;101246.59;;;-0.90;100.00
29461;BME280;16428;47.836;35.106;2023-12-14T05:26:03;101261.56;;;-0.91;100.00
29461;BME280;16428;47.836;35.106;2023-12-14T05:28:30;101263.66;;;-0.96;100.00
29461;BME280;16428;47.836;35.106;2023-12-14T05:30:57;101261.19;;;-0.99;100.00
29461;BME280;16428;47.836;35.106;2023-12-14T05:33:25;101264.69;;;-0.84;100.00
29461;BME280;16428;47.836;35.106;2023-12-14T05:35:52;101266.59;;;-0.72;100.00
29461;BME280;16428;47.836;35.106;2023-12-14T05:38:20;101271.41;;;-0.79;100.00
29461;BME280;16428;47.836;35.106;2023-12-14T05:40:47;101265.59;;;-0.69;100.00
29461;BME280;16428;47.836;35.106;2023-12-14T05:43:14;101263.44;;;-0.63;100.00
29461;BME280;16428;47.836;35.106;2023-12-14T05:45:41;101262.00;;;-0.68;100.00
29461;BME280;16428;47.836;35.106;2023-12-14T05:48:09;101248.91;;;-0.70;100.00
29461;BME280;16428;47.836;35.106;2023-12-14T05:50:36;101261.09;;;-0.53;100.00
29461;BME280;16428;47.836;35.106;2023-12-14T05:53:03;101251.56;;;-0.56;100.00
29461;BME280;16428;47.836;35.106;2023-12-14T05:55:30;101249.84;;;-0.57;100.00
29461;BME280;16428;47.836;35.106;2023-12-14T05:57:57;101264.84;;;-0.57;100.00
29461;BME280;16428;47.836;35.106;2023-12-14T06:00:25;101241.38;;;-0.62;100.00
29461;BME280;16428;47.836;35.106;2023-12-14T06:02:52;101258.19;;;-0.49;100.00
29461;BME280;16428;47.836;35.106;2023-12-14T06:05:20;101269.94;;;-0.40;100.00
29461;BME280;16428;47.836;35.106;2023-12-14T06:07:47;101281.09;;;-0.35;100.00
29461;BME280;16428;47.836;35.106;2023-12-14T06:10:14;101269.00;;;-0.39;100.00
29461;BME280;16428;47.836;35.106;2023-12-14T06:12:41;101255.25;;;-0.16;100.00
29461;BME280;16428;47.836;35.106;2023-12-14T06:15:08;101266.94;;;-0.06;100.00
29461;BME280;16428;47.836;35.106;2023-12-14T06:17:37;101269.56;;;-0.06;100.00
29461;BME280;16428;47.836;35.106;2023-12-14T06:20:06;101263.53;;;-0.08;100.00
29461;BME280;16428;47.836;35.106;2023-12-14T06:22:36;101274.47;;;-0.14;100.00
29461;BME280;16428;47.836;35.106;2023-12-14T06:25:04;101275.53;;;-0.02;100.00
29461;BME280;16428;47.836;35.106;2023-12-14T06:27:32;101259.47;;;0.01;100.00
29461;BME280;16428;47.836;35.106;2023-12-14T06:29:59;101259.19;;;0.06;100.00
29461;BME280;16428;47.836;35.106;2023-12-14T06:32:26;101264.94;;;0.12;100.00
29461;BME280;16428;47.836;35.106;2023-12-14T06:34:54;101268.44;;;0.13;100.00
29461;BME280;16428;47.836;35.106;2023-12-14T06:37:21;101255.41;;;0.10;100.00
29461;BME280;16428;47.836;35.106;2023-12-14T06:39:48;101264.09;;;0.12;100.00
29461;BME280;16428;47.836;35.106;2023-12-14T06:42:15;101271.72;;;0.16;100.00
29461;BME280;16428;47.836;35.106;2023-12-14T06:44:42;101253.69;;;0.23;100.00
29461;BME280;16428;47.836;35.106;2023-12-14T06:47:09;101254.94;;;0.03;100.00
29461;BME280;16428;47.836;35.106;2023-12-14T06:49:36;101245.78;;;0.09;100.00
29461;BME280;16428;47.836;35.106;2023-12-14T06:52:04;101245.84;;;0.21;100.00
29461;BME280;16428;47.836;35.106;2023-12-14T06:54:31;101248.97;;;0.28;100.00
29461;BME280;16428;47.836;35.106;2023-12-14T06:56:58;101247.28;;;0.27;100.00
29461;BME280;16428;47.836;35.106;2023-12-14T06:59:25;101245.56;;;0.26;100.00
29461;BME280;16428;47.836;35.106;2023-12-14T07:01:52;101251.28;;;0.32;100.00
29461;BME280;16428;47.836;35.106;2023-12-14T07:04:19;101249.72;;;0.30;100.00
29461;BME280;16428;47.836;35.106;2023-12-14T07:06:51;101256.84;;;0.42;100.00
29461;BME280;16428;47.836;35.106;2023-12-14T07:09:18;101250.81;;;0.40;100.00
29461;BME280;16428;47.836;35.106;2023-12-14T07:11:46;101239.34;;;0.27;100.00
29461;BME280;16428;47.836;35.106;2023-12-14T07:14:13;101240.09;;;0.29;100.00
29461;BME280;16428;47.836;35.106;2023-12-14T07:16:43;101224.44;;;0.26;100.00
29461;BME280;16428;47.836;35.106;2023-12-14T07:19:11;101222.53;;;0.28;100.00
29461;BME280;16428;47.836;35.106;2023-12-14T07:21:39;101228.91;;;0.38;100.00
29461;BME280;16428;47.836;35.106;2023-12-14T07:24:06;101232.88;;;0.31;100.00
29461;BME280;16428;47.836;35.106;2023-12-14T07:26:33;101228.91;;;0.38;100.00
29461;BME280;16428;47.836;35.106;2023-12-14T07:29:01;101217.34;;;0.53;100.00
29461;BME280;16428;47.836;35.106;2023-12-14T07:31:28;101221.59;;;0.56;100.00
29461;BME280;16428;47.836;35.106;2023-12-14T07:33:56;101230.69;;;0.64;100.00
29461;BME280;16428;47.836;35.106;2023-12-14T07:36:23;101244.50;;;0.43;100.00
29461;BME280;16428;47.836;35.106;2023-12-14T07:38:50;101240.81;;;0.45;100.00
29461;BME280;16428;47.836;35.106;2023-12-14T07:41:21;101244.78;;;0.38;100.00
29461;BME280;16428;47.836;35.106;2023-12-14T07:43:53;101249.13;;;0.39;100.00
29461;BME280;16428;47.836;35.106;2023-12-14T07:46:21;101243.75;;;0.41;100.00
29461;BME280;16428;47.836;35.106;2023-12-14T07:48:48;101239.72;;;0.48;100.00
29461;BME280;16428;47.836;35.106;2023-12-14T07:51:16;101249.91;;;0.54;100.00
29461;BME280;16428;47.836;35.106;2023-12-14T07:53:43;101250.47;;;0.59;100.00
29461;BME280;16428;47.836;35.106;2023-12-14T07:56:10;101251.31;;;0.59;100.00
29461;BME280;16428;47.836;35.106;2023-12-14T07:58:37;101239.09;;;0.71;100.00
29461;BME280;16428;47.836;35.106;2023-12-14T08:01:05;101252.38;;;0.57;100.00
29461;BME280;16428;47.836;35.106;2023-12-14T08:03:32;101245.63;;;0.65;100.00
29461;BME280;16428;47.836;35.106;2023-12-14T08:05:59;101239.94;;;0.72;100.00
29461;BME280;16428;47.836;35.106;2023-12-14T08:08:26;101256.56;;;0.74;100.00
29461;BME280;16428;47.836;35.106;2023-12-14T08:10:54;101243.72;;;0.67;100.00
29461;BME280;16428;47.836;35.106;2023-12-14T08:13:21;101257.09;;;0.79;100.00
29461;BME280;16428;47.836;35.106;2023-12-14T08:15:48;101232.13;;;0.83;100.00
29461;BME280;16428;47.836;35.106;2023-12-14T08:18:15;101228.84;;;0.79;100.00
29461;BME280;16428;47.836;35.106;2023-12-14T08:20:42;101246.03;;;0.99;100.00
29461;BME280;16428;47.836;35.106;2023-12-14T08:23:10;101237.78;;;0.91;100.00
29461;BME280;16428;47.836;35.106;2023-12-14T08:25:37;101212.81;;;1.08;100.00
29461;BME280;16428;47.836;35.106;2023-12-14T08:28:05;101203.22;;;1.07;100.00
29461;BME280;16428;47.836;35.106;2023-12-14T08:30:32;101192.28;;;1.11;100.00
29461;BME280;16428;47.836;35.106;2023-12-14T08:32:59;101175.16;;;1.04;100.00
29461;BME280;16428;47.836;35.106;2023-12-14T08:35:26;101167.31;;;1.15;100.00
29461;BME280;16428;47.836;35.106;2023-12-14T08:37:53;101167.63;;;1.23;100.00
29461;BME280;16428;47.836;35.106;2023-12-14T08:40:21;101161.19;;;1.27;100.00
29461;BME280;16428;47.836;35.106;2023-12-14T08:42:48;101153.13;;;1.41;100.00
29461;BME280;16428;47.836;35.106;2023-12-14T08:45:16;101154.84;;;1.30;100.00
29461;BME280;16428;47.836;35.106;2023-12-14T08:47:43;101146.38;;;1.37;100.00
29461;BME280;16428;47.836;35.106;2023-12-14T08:50:11;101153.88;;;1.44;100.00
29461;BME280;16428;47.836;35.106;2023-12-14T08:52:39;101145.72;;;1.47;100.00
29461;BME280;16428;47.836;35.106;2023-12-14T08:55:07;101130.88;;;1.44;100.00
29461;BME280;16428;47.836;35.106;2023-12-14T08:57:35;101121.81;;;1.35;100.00
29461;BME280;16428;47.836;35.106;2023-12-14T09:00:02;101112.31;;;1.57;100.00
29461;BME280;16428;47.836;35.106;2023-12-14T09:02:34;101114.69;;;1.49;100.00
29461;BME280;16428;47.836;35.106;2023-12-14T09:05:03;101121.03;;;1.46;100.00
29461;BME280;16428;47.836;35.106;2023-12-14T09:07:32;101113.09;;;1.46;100.00
29461;BME280;16428;47.836;35.106;2023-12-14T09:09:59;101106.75;;;1.49;100.00
29461;BME280;16428;47.836;35.106;2023-12-14T09:12:26;101102.91;;;1.65;100.00
29461;BME280;16428;47.836;35.106;2023-12-14T09:14:54;101099.81;;;1.59;100.00
29461;BME280;16428;47.836;35.106;2023-12-14T09:17:21;101097.19;;;1.59;100.00
29461;BME280;16428;47.836;35.106;2023-12-14T09:19:49;101088.59;;;1.68;100.00
29461;BME280;16428;47.836;35.106;2023-12-14T09:22:16;101087.28;;;1.73;100.00
29461;BME280;16428;47.836;35.106;2023-12-14T09:24:44;101092.50;;;1.62;100.00
29461;BME280;16428;47.836;35.106;2023-12-14T09:27:12;101090.50;;;1.53;100.00
29461;BME280;16428;47.836;35.106;2023-12-14T09:29:39;101091.00;;;1.71;100.00
29461;BME280;16428;47.836;35.106;2023-12-14T09:32:08;101092.16;;;1.80;100.00
29461;BME280;16428;47.836;35.106;2023-12-14T09:34:36;101093.53;;;1.72;100.00
29461;BME280;16428;47.836;35.106;2023-12-14T09:37:03;101093.16;;;1.90;100.00
29461;BME280;16428;47.836;35.106;2023-12-14T09:39:31;101091.00;;;1.71;100.00
29461;BME280;16428;47.836;35.106;2023-12-14T09:42:05;101104.06;;;1.85;100.00
29461;BME280;16428;47.836;35.106;2023-12-14T09:44:35;101112.53;;;1.90;100.00
29461;BME280;16428;47.836;35.106;2023-12-14T09:47:04;101111.75;;;2.01;100.00
29461;BME280;16428;47.836;35.106;2023-12-14T09:49:33;101108.94;;;1.91;100.00
29461;BME280;16428;47.836;35.106;2023-12-14T09:52:02;101116.94;;;2.02;100.00
29461;BME280;16428;47.836;35.106;2023-12-14T09:54:29;101111.88;;;1.99;100.00
29461;BME280;16428;47.836;35.106;2023-12-14T09:56:56;101112.88;;;1.86;100.00
29461;BME280;16428;47.836;35.106;2023-12-14T09:59:24;101104.53;;;2.03;100.00
29461;BME280;16428;47.836;35.106;2023-12-14T10:01:51;101097.97;;;2.08;100.00
29461;BME280;16428;47.836;35.106;2023-12-14T10:04:19;101096.19;;;2.20;100.00
29461;BME280;16428;47.836;35.106;2023-12-14T10:06:50;101078.44;;;2.09;100.00
29461;BME280;16428;47.836;35.106;2023-12-14T10:09:23;101069.88;;;2.06;100.00
29461;BME280;16428;47.836;35.106;2023-12-14T10:12:05;101065.47;;;2.18;100.00
29461;BME280;16428;47.836;35.106;2023-12-14T10:14:33;101058.03;;;2.23;100.00
29461;BME280;16428;47.836;35.106;2023-12-14T10:17:33;101058.53;;;2.28;100.00
29461;BME280;16428;47.836;35.106;2023-12-14T10:20:01;101055.03;;;2.03;100.00
29461;BME280;16428;47.836;35.106;2023-12-14T10:22:31;101059.50;;;2.03;100.00
29461;BME280;16428;47.836;35.106;2023-12-14T10:24:59;101054.81;;;2.06;100.00
29461;BME280;16428;47.836;35.106;2023-12-14T10:27:30;101042.84;;;2.25;100.00
29461;BME280;16428;47.836;35.106;2023-12-14T10:29:58;101046.19;;;2.16;100.00
29461;BME280;16428;47.836;35.106;2023-12-14T10:32:26;101040.44;;;2.33;100.00
29461;BME280;16428;47.836;35.106;2023-12-14T10:34:53;101030.06;;;2.30;100.00
29461;BME280;16428;47.836;35.106;2023-12-14T10:37:21;101027.44;;;2.30;100.00
29461;BME280;16428;47.836;35.106;2023-12-14T10:39:49;101015.88;;;2.31;100.00
29461;BME280;16428;47.836;35.106;2023-12-14T10:42:18;101005.41;;;2.40;100.00
29461;BME280;16428;47.836;35.106;2023-12-14T10:44:49;101004.47;;;2.41;100.00
29461;BME280;16428;47.836;35.106;2023-12-14T10:47:43;100999.38;;;2.38;100.00
29461;BME280;16428;47.836;35.106;2023-12-14T10:50:13;100990.81;;;2.35;100.00
29461;BME280;16428;47.836;35.106;2023-12-14T10:52:40;100978.06;;;2.40;100.00
29461;BME280;16428;47.836;35.106;2023-12-14T10:55:18;100978.41;;;2.46;100.00
29461;BME280;16428;47.836;35.106;2023-12-14T10:57:48;100969.88;;;2.54;100.00
29461;BME280;16428;47.836;35.106;2023-12-14T11:00:17;100957.59;;;2.53;100.00
29461;BME280;16428;47.836;35.106;2023-12-14T11:02:47;100939.25;;;2.61;100.00
29461;BME280;16428;47.836;35.106;2023-12-14T11:05:16;100946.59;;;2.46;100.00
29461;BME280;16428;47.836;35.106;2023-12-14T11:07:52;100942.13;;;2.47;100.00
29461;BME280;16428;47.836;35.106;2023-12-14T11:10:27;100941.28;;;2.46;100.00
29461;BME280;16428;47.836;35.106;2023-12-14T11:13:03;100948.16;;;2.60;100.00
29461;BME280;16428;47.836;35.106;2023-12-14T11:15:36;100959.63;;;2.61;100.00
29461;BME280;16428;47.836;35.106;2023-12-14T11:23:18;100934.94;;;2.71;100.00
29461;BME280;16428;47.836;35.106;2023-12-14T11:25:56;100932.88;;;2.64;100.00
29461;BME280;16428;47.836;35.106;2023-12-14T11:28:26;100926.97;;;2.71;100.00
29461;BME280;16428;47.836;35.106;2023-12-14T11:30:55;100923.09;;;2.64;100.00
29461;BME280;16428;47.836;35.106;2023-12-14T11:33:24;100905.97;;;2.79;100.00
29461;BME280;16428;47.836;35.106;2023-12-14T11:35:52;100924.09;;;2.74;100.00
29461;BME280;16428;47.836;35.106;2023-12-14T11:38:20;100919.00;;;2.82;100.00
29461;BME280;16428;47.836;35.106;2023-12-14T11:40:49;100922.00;;;2.78;100.00
29461;BME280;16428;47.836;35.106;2023-12-14T11:43:17;100926.97;;;2.82;100.00
29461;BME280;16428;47.836;35.106;2023-12-14T11:45:48;100928.66;;;2.83;100.00
29461;BME280;16428;47.836;35.106;2023-12-14T11:48:16;100926.84;;;2.73;100.00
29461;BME280;16428;47.836;35.106;2023-12-14T11:50:44;100916.81;;;2.76;100.00
29461;BME280;16428;47.836;35.106;2023-12-14T11:53:11;100902.38;;;2.69;100.00
29461;BME280;16428;47.836;35.106;2023-12-14T11:55:41;100910.94;;;2.84;100.00
29461;BME280;16428;47.836;35.106;2023-12-14T11:58:12;100913.66;;;2.94;100.00
29461;BME280;16428;47.836;35.106;2023-12-14T12:00:41;100922.97;;;2.99;100.00
29461;BME280;16428;47.836;35.106;2023-12-14T12:03:19;100915.84;;;3.00;100.00
29461;BME280;16428;47.836;35.106;2023-12-14T12:05:49;100920.06;;;2.91;100.00
29461;BME280;16428;47.836;35.106;2023-12-14T12:08:20;100914.63;;;3.04;100.00
29461;BME280;16428;47.836;35.106;2023-12-14T12:10:49;100908.38;;;3.05;100.00
29461;BME280;16428;47.836;35.106;2023-12-14T12:13:19;100900.53;;;3.03;100.00
29461;BME280;16428;47.836;35.106;2023-12-14T12:15:47;100907.97;;;3.09;100.00
29461;BME280;16428;47.836;35.106;2023-12-14T12:18:16;100909.63;;;3.22;100.00
29461;BME280;16428;47.836;35.106;2023-12-14T12:20:44;100919.63;;;3.29;100.00
29461;BME280;16428;47.836;35.106;2023-12-14T12:23:12;100926.09;;;3.36;100.00
29461;BME280;16428;47.836;35.106;2023-12-14T12:25:39;100923.22;;;3.39;100.00
29461;BME280;16428;47.836;35.106;2023-12-14T12:28:06;100925.16;;;3.37;100.00
29461;BME280;16428;47.836;35.106;2023-12-14T12:30:33;100925.63;;;3.42;100.00
29461;BME280;16428;47.836;35.106;2023-12-14T12:33:06;100925.38;;;3.45;100.00
29461;BME280;16428;47.836;35.106;2023-12-14T12:35:33;100928.28;;;3.42;100.00
29461;BME280;16428;47.836;35.106;2023-12-14T12:38:01;100915.97;;;3.41;100.00
29461;BME280;16428;47.836;35.106;2023-12-14T12:40:30;100918.88;;;3.38;100.00
29461;BME280;16428;47.836;35.106;2023-12-14T12:43:00;100917.91;;;3.39;100.00
29461;BME280;16428;47.836;35.106;2023-12-14T12:45:28;100921.06;;;3.33;100.00